createdAt,value
2019-03-29T00:02:01.776Z,47.80
2019-03-29T00:04:28.472Z,48.10
2019-03-29T00:06:55.029Z,48.50
2019-03-29T00:09:21.501Z,48.50
2019-03-29T00:11:48.063Z,48.50
2019-03-29T00:14:15.850Z,48.50
2019-03-29T00:16:42.440Z,48.20
2019-03-29T00:19:09.148Z,48.30
2019-03-29T00:21:35.846Z,49.60
2019-03-29T00:24:07.009Z,48.50
2019-03-29T00:26:30.950Z,48.30
2019-03-29T00:28:57.499Z,48.40
2019-03-29T00:31:24.506Z,48.50
2019-03-29T00:33:51.007Z,48.20
2019-03-29T00:36:17.624Z,48.00
2019-03-29T00:38:50.492Z,48.40
2019-03-29T00:41:16.975Z,47.60
2019-03-29T00:43:43.642Z,48.10
2019-03-29T00:46:10.122Z,48.00
2019-03-29T00:48:36.692Z,48.00
2019-03-29T00:51:03.384Z,47.90
2019-03-29T00:53:29.856Z,48.00
2019-03-29T00:55:56.457Z,48.10
2019-03-29T00:58:22.999Z,48.20
2019-03-29T01:00:49.689Z,48.20
2019-03-29T01:03:17.515Z,48.50
2019-03-29T01:05:44.087Z,48.20
2019-03-29T01:08:10.893Z,48.30
2019-03-29T01:10:37.485Z,48.20
2019-03-29T01:13:04.032Z,48.30
2019-03-29T01:15:30.590Z,48.30
2019-03-29T01:17:57.224Z,48.40
2019-03-29T01:20:23.906Z,48.20
2019-03-29T01:22:50.521Z,48.40
2019-03-29T01:25:17.115Z,48.50
2019-03-29T01:27:43.614Z,48.50
2019-03-29T01:30:10.215Z,48.70
2019-03-29T01:32:36.683Z,48.50
2019-03-29T01:35:05.275Z,48.60
2019-03-29T01:37:31.770Z,48.90
2019-03-29T01:39:58.240Z,48.80
2019-03-29T01:42:24.780Z,48.70
2019-03-29T01:44:51.356Z,48.80
2019-03-29T01:47:17.882Z,48.60
2019-03-29T01:49:44.474Z,48.90
2019-03-29T01:52:12.333Z,48.90
2019-03-29T01:57:19.038Z,49.00
2019-03-29T01:59:45.484Z,49.70
2019-03-29T02:02:12.054Z,49.00
2019-03-29T02:04:38.762Z,48.90
2019-03-29T02:07:05.428Z,49.00
2019-03-29T02:09:31.924Z,49.10
2019-03-29T02:11:58.684Z,49.40
2019-03-29T02:14:25.739Z,49.20
2019-03-29T02:16:52.285Z,49.20
2019-03-29T02:19:18.961Z,48.90
2019-03-29T02:21:45.323Z,49.10
2019-03-29T02:24:11.945Z,49.50
2019-03-29T02:26:38.719Z,49.40
2019-03-29T02:29:05.273Z,49.50
2019-03-29T02:31:31.952Z,49.40
2019-03-29T02:34:18.389Z,49.40
2019-03-29T02:36:45.103Z,49.40
2019-03-29T02:39:11.819Z,49.50
2019-03-29T02:41:41.266Z,49.50
2019-03-29T02:44:08.005Z,49.50
2019-03-29T02:46:34.733Z,49.80
2019-03-29T02:49:01.311Z,49.90
2019-03-29T02:51:47.679Z,50.60
2019-03-29T02:54:14.467Z,49.90
2019-03-29T02:56:41.138Z,50.00
2019-03-29T02:59:07.749Z,50.00
2019-03-29T03:01:34.347Z,50.10
2019-03-29T03:04:00.992Z,50.10
2019-03-29T03:06:27.812Z,50.10
2019-03-29T03:09:14.966Z,49.70
2019-03-29T03:11:54.922Z,49.90
2019-03-29T03:14:21.470Z,49.90
2019-03-29T03:16:47.871Z,50.00
2019-03-29T03:19:14.357Z,50.00
2019-03-29T03:21:40.867Z,50.10
2019-03-29T03:24:07.347Z,50.00
2019-03-29T03:26:34.075Z,50.20
2019-03-29T03:29:00.571Z,50.10
2019-03-29T03:31:27.032Z,50.10
2019-03-29T03:33:53.657Z,50.20
2019-03-29T03:36:20.103Z,50.60
2019-03-29T03:38:46.596Z,50.70
2019-03-29T03:41:13.119Z,50.60
2019-03-29T03:43:39.753Z,50.50
2019-03-29T03:46:06.315Z,50.70
2019-03-29T03:48:32.946Z,50.60
2019-03-29T03:50:59.521Z,51.00
2019-03-29T03:53:26.120Z,51.10
2019-03-29T03:55:53.495Z,51.30
2019-03-29T03:58:21.077Z,51.40
2019-03-29T04:00:54.420Z,52.60
2019-03-29T04:03:23.059Z,52.10
2019-03-29T04:05:49.700Z,51.50
2019-03-29T04:08:36.075Z,51.80
2019-03-29T04:11:03.089Z,52.00
2019-03-29T06:25:07.818Z,51.20
2019-03-29T06:27:35.693Z,51.60
2019-03-29T06:30:05.684Z,51.60
2019-03-29T06:32:32.427Z,51.60
2019-03-29T06:34:58.880Z,51.40
2019-03-29T06:37:38.495Z,51.40
2019-03-29T06:40:08.439Z,50.90
2019-03-29T06:42:34.922Z,51.10
2019-03-29T06:45:01.441Z,51.20
2019-03-29T06:47:38.774Z,51.20
2019-03-29T06:50:05.918Z,51.30
2019-03-29T06:52:45.424Z,50.80
2019-03-29T06:55:12.048Z,51.00
2019-03-29T06:57:38.637Z,50.70
2019-03-29T07:00:06.463Z,50.80
2019-03-29T07:02:33.030Z,51.20
2019-03-29T07:04:59.781Z,50.60
2019-03-29T07:07:26.329Z,50.00
2019-03-29T07:09:52.863Z,50.00
2019-03-29T07:12:19.374Z,50.60
2019-03-29T07:14:45.786Z,50.40
2019-03-29T07:17:12.333Z,50.30
2019-03-29T07:19:38.742Z,49.40
2019-03-29T07:22:06.461Z,49.20
2019-03-29T07:24:33.047Z,48.80
2019-03-29T07:26:59.769Z,48.70
2019-03-29T07:29:26.097Z,48.20
2019-03-29T07:31:53.292Z,47.90
2019-03-29T07:34:20.226Z,47.40
2019-03-29T07:36:46.861Z,47.60
2019-03-29T07:39:13.256Z,47.40
2019-03-29T07:41:39.809Z,45.20
2019-03-29T07:44:06.424Z,44.90
2019-03-29T07:46:32.987Z,44.50
2019-03-29T07:48:59.394Z,44.10
2019-03-29T07:51:26.026Z,43.70
2019-03-29T07:53:52.430Z,44.10
2019-03-29T07:56:18.747Z,44.20
2019-03-29T07:58:45.170Z,43.70
2019-03-29T08:01:11.797Z,43.30
2019-03-29T08:03:38.230Z,43.00
2019-03-29T08:06:04.751Z,42.50
2019-03-29T08:08:34.133Z,42.50
2019-03-29T08:10:59.559Z,42.70
2019-03-29T08:13:26.186Z,42.20
2019-03-29T08:15:52.726Z,42.50
2019-03-29T08:18:19.244Z,41.90
2019-03-29T08:20:45.894Z,41.00
2019-03-29T08:23:12.455Z,41.50
2019-03-29T08:25:39.237Z,41.00
2019-03-29T08:28:05.937Z,40.90
2019-03-29T08:30:33.964Z,41.20
2019-03-29T08:33:00.492Z,40.70
2019-03-29T08:35:27.252Z,40.90
2019-03-29T08:37:53.736Z,41.10
2019-03-29T08:40:20.077Z,41.20
2019-03-29T08:42:46.816Z,41.00
2019-03-29T08:45:13.570Z,40.70
2019-03-29T08:47:40.187Z,40.40
2019-03-29T08:50:07.446Z,40.70
2019-03-29T08:52:34.217Z,41.00
2019-03-29T08:55:01.103Z,40.80
2019-03-29T08:57:27.789Z,40.80
2019-03-29T08:59:54.682Z,41.20
2019-03-29T09:02:24.772Z,41.00
2019-03-29T09:04:49.909Z,41.20
2019-03-29T09:07:16.741Z,41.00
2019-03-29T09:09:46.429Z,41.30
2019-03-29T09:12:18.105Z,41.00
2019-03-29T09:14:42.628Z,41.10
2019-03-29T09:17:09.392Z,40.20
2019-03-29T09:19:36.039Z,40.10
2019-03-29T09:22:03.431Z,40.40
2019-03-29T09:24:30.328Z,39.80
2019-03-29T09:26:57.166Z,39.70
2019-03-29T09:29:23.978Z,39.90
2019-03-29T09:31:52.687Z,39.90
2019-03-29T09:34:19.577Z,39.60
2019-03-29T09:36:46.358Z,38.90
2019-03-29T09:39:13.115Z,38.60
2019-03-29T09:41:39.569Z,39.00
2019-03-29T09:44:06.307Z,39.40
2019-03-29T09:46:32.730Z,39.50
2019-03-29T09:48:59.308Z,38.50
2019-03-29T09:51:25.944Z,38.50
2019-03-29T09:53:52.559Z,39.00
2019-03-29T09:56:19.202Z,38.40
2019-03-29T09:58:45.984Z,37.80
2019-03-29T10:01:12.496Z,37.40
2019-03-29T10:03:39.144Z,36.90
2019-03-29T10:06:05.667Z,36.80
2019-03-29T10:08:32.231Z,37.20
2019-03-29T10:10:58.767Z,36.70
2019-03-29T10:13:25.335Z,36.90
2019-03-29T10:15:51.858Z,37.60
2019-03-29T10:18:18.503Z,37.10
2019-03-29T10:20:46.817Z,36.60
2019-03-29T10:23:13.535Z,37.30
2019-03-29T10:25:44.397Z,36.90
2019-03-29T10:28:11.108Z,37.00
2019-03-29T10:30:40.774Z,36.70
2019-03-29T10:33:07.376Z,36.40
2019-03-29T10:35:34.799Z,36.60
2019-03-29T10:38:01.233Z,37.50
2019-03-29T10:40:47.663Z,36.50
2019-03-29T10:43:14.717Z,36.60
2019-03-29T10:45:41.257Z,36.10
2019-03-29T10:48:07.940Z,35.40
2019-03-29T10:50:34.468Z,36.00
2019-03-29T10:53:00.786Z,35.40
2019-03-29T10:55:27.429Z,35.10
2019-03-29T10:57:54.076Z,35.90
2019-03-29T11:00:32.676Z,37.00
2019-03-29T11:02:59.207Z,36.60
2019-03-29T11:05:25.593Z,36.50
2019-03-29T11:07:52.883Z,35.00
2019-03-29T11:10:32.189Z,34.90
2019-03-29T11:13:11.822Z,36.30
2019-03-29T11:15:28.015Z,35.10
2019-03-29T11:17:54.636Z,35.10
2019-03-29T11:20:21.048Z,34.50
2019-03-29T11:22:47.584Z,34.60
2019-03-29T11:25:14.207Z,34.70
2019-03-29T11:27:41.081Z,33.90
2019-03-29T11:30:07.631Z,34.70
2019-03-29T11:32:34.134Z,34.10
2019-03-29T11:35:00.755Z,33.60
2019-03-29T11:37:28.574Z,32.90
2019-03-29T11:39:55.110Z,33.50
2019-03-29T11:42:22.787Z,35.80
2019-03-29T11:44:49.524Z,36.10
2019-03-29T11:47:15.926Z,33.80
2019-03-29T11:49:42.478Z,35.00
2019-03-29T11:52:09.991Z,34.40
2019-03-29T11:54:36.433Z,33.30
2019-03-29T11:57:02.879Z,33.50
2019-03-29T11:59:29.608Z,33.60
2019-03-29T12:01:56.033Z,33.00
2019-03-29T12:04:22.313Z,34.00
2019-03-29T12:06:48.637Z,33.90
2019-03-29T12:09:15.166Z,34.00
2019-03-29T12:11:41.792Z,33.50
2019-03-29T12:14:08.186Z,34.50
2019-03-29T12:16:34.641Z,33.90
2019-03-29T12:19:01.121Z,33.20
2019-03-29T12:21:27.547Z,33.50
2019-03-29T12:23:54.069Z,35.20
2019-03-29T12:26:20.582Z,34.20
2019-03-29T12:28:46.934Z,32.90
2019-03-29T12:31:13.559Z,32.90
2019-03-29T12:33:39.969Z,32.00
2019-03-29T12:36:06.373Z,32.10
2019-03-29T12:38:32.685Z,32.70
2019-03-29T12:40:59.201Z,33.20
2019-03-29T12:43:25.530Z,33.00
2019-03-29T12:45:51.853Z,32.90
2019-03-29T12:48:18.293Z,32.80
2019-03-29T12:50:45.018Z,32.50
2019-03-29T12:53:11.710Z,32.40
2019-03-29T12:55:41.024Z,32.00
2019-03-29T12:58:08.514Z,31.60
2019-03-29T13:00:35.068Z,31.60
2019-03-29T13:03:01.732Z,32.30
2019-03-29T13:05:28.351Z,32.60
2019-03-29T13:07:54.863Z,32.50
2019-03-29T13:10:34.960Z,30.40
2019-03-29T13:13:01.612Z,30.10
2019-03-29T13:15:28.127Z,30.50
2019-03-29T13:17:55.746Z,28.70
2019-03-29T13:20:22.398Z,28.40
2019-03-29T13:22:48.924Z,28.90
2019-03-29T13:25:15.395Z,27.60
2019-03-29T13:27:41.769Z,28.20
2019-03-29T13:30:09.542Z,27.80
2019-03-29T13:32:36.078Z,27.90
2019-03-29T13:35:05.202Z,27.60
2019-03-29T13:37:31.742Z,27.40
2019-03-29T13:39:58.147Z,27.10
2019-03-29T13:42:24.744Z,26.40
2019-03-29T13:44:51.155Z,27.80
2019-03-29T13:47:18.266Z,27.40
2019-03-29T13:49:45.107Z,26.20
2019-03-29T13:52:11.656Z,26.80
2019-03-29T13:54:38.052Z,26.50
2019-03-29T13:57:04.493Z,27.10
2019-03-29T13:59:32.084Z,26.10
2019-03-29T14:01:59.052Z,25.80
2019-03-29T14:04:25.494Z,26.00
2019-03-29T14:06:51.924Z,26.20
2019-03-29T14:09:18.361Z,25.80
2019-03-29T14:11:44.854Z,25.70
2019-03-29T14:14:13.215Z,25.80
2019-03-29T14:16:40.635Z,25.10
2019-03-29T14:19:07.198Z,24.70
2019-03-29T14:21:33.700Z,24.60
2019-03-29T14:24:00.347Z,24.70
2019-03-29T14:26:26.883Z,24.40
2019-03-29T14:28:53.453Z,24.30
2019-03-29T14:31:19.886Z,24.10
2019-03-29T14:33:46.533Z,23.60
2019-03-29T14:36:13.051Z,24.30
2019-03-29T14:38:40.114Z,24.30
2019-03-29T14:41:07.889Z,24.20
2019-03-29T14:43:35.438Z,24.70
2019-03-29T14:46:01.897Z,26.00
2019-03-29T14:48:28.313Z,25.70
2019-03-29T14:50:54.824Z,25.50
2019-03-29T14:53:21.859Z,25.80
2019-03-29T14:55:48.384Z,25.20
2019-03-29T14:58:14.742Z,24.50
2019-03-29T15:00:43.172Z,24.70
2019-03-29T15:03:10.802Z,24.30
2019-03-29T15:05:37.866Z,23.30
2019-03-29T15:08:04.350Z,23.10
2019-03-29T15:10:30.979Z,22.10
2019-03-29T15:12:57.420Z,22.20
2019-03-29T15:15:23.747Z,22.20
2019-03-29T15:17:50.186Z,22.80
2019-03-29T15:20:16.672Z,26.90
2019-03-29T15:22:43.272Z,21.70
2019-03-29T15:25:09.908Z,21.40
2019-03-29T15:27:36.320Z,21.40
2019-03-29T15:30:05.833Z,22.60
2019-03-29T15:32:32.375Z,18.30
2019-03-29T15:34:58.907Z,20.40
2019-03-29T15:37:25.494Z,19.40
2019-03-29T15:39:52.036Z,17.30
2019-03-29T15:42:20.495Z,17.50
2019-03-29T15:44:47.071Z,18.10
2019-03-29T15:47:13.568Z,17.70
2019-03-29T15:49:40.066Z,17.80
2019-03-29T15:52:06.709Z,18.20
2019-03-29T15:54:34.702Z,19.00
2019-03-29T15:57:01.130Z,18.20
2019-03-29T15:59:27.681Z,16.70
2019-03-29T16:01:54.326Z,17.40
2019-03-29T16:04:20.834Z,18.50
2019-03-29T16:06:47.367Z,20.60
2019-03-29T16:09:14.055Z,21.30
2019-03-29T16:11:40.594Z,22.50
2019-03-29T16:14:07.149Z,21.50
2019-03-29T16:16:33.705Z,20.70
2019-03-29T16:19:00.243Z,21.00
2019-03-29T16:21:26.739Z,21.60
2019-03-29T16:23:53.277Z,22.00
2019-03-29T16:26:19.804Z,22.20
2019-03-29T16:28:46.250Z,21.90
2019-03-29T16:31:12.913Z,20.70
2019-03-29T16:33:39.335Z,21.00
2019-03-29T16:36:05.904Z,23.70
2019-03-29T16:38:32.528Z,25.40
2019-03-29T16:40:59.043Z,27.00
2019-03-29T16:43:25.482Z,27.70
2019-03-29T16:45:52.137Z,28.60
2019-03-29T16:48:18.672Z,29.10
2019-03-29T16:50:45.518Z,29.80
2019-03-29T16:53:12.023Z,29.60
2019-03-29T16:55:38.504Z,30.00
2019-03-29T16:58:05.011Z,30.10
2019-03-29T17:00:31.669Z,30.20
2019-03-29T17:02:58.158Z,29.90
2019-03-29T17:05:24.896Z,29.90
2019-03-29T17:07:51.317Z,30.00
2019-03-29T17:10:17.736Z,29.90
2019-03-29T17:12:44.173Z,30.00
2019-03-29T17:15:10.922Z,30.40
2019-03-29T17:17:37.591Z,30.80
2019-03-29T17:20:05.923Z,31.40
2019-03-29T17:22:32.781Z,32.20
2019-03-29T17:24:59.249Z,32.50
2019-03-29T17:27:26.849Z,33.20
2019-03-29T17:29:53.368Z,34.00
2019-03-29T17:32:21.552Z,34.30
2019-03-29T17:35:08.196Z,34.40
2019-03-29T17:37:34.976Z,33.60
2019-03-29T17:40:03.012Z,33.90
2019-03-29T17:42:29.855Z,33.60
2019-03-29T17:44:58.974Z,34.70
2019-03-29T17:47:24.861Z,35.50
2019-03-29T17:49:51.447Z,36.50
2019-03-29T17:52:18.019Z,37.30
2019-03-29T17:54:44.567Z,38.30
2019-03-29T17:57:10.985Z,39.00
2019-03-29T17:59:37.622Z,39.30
2019-03-29T18:02:09.657Z,39.40
2019-03-29T18:04:32.996Z,40.30
2019-03-29T18:06:59.618Z,40.40
2019-03-29T18:09:26.121Z,40.80
2019-03-29T18:11:52.596Z,41.00
2019-03-29T18:14:19.461Z,41.60
2019-03-29T18:16:46.036Z,42.00
2019-03-29T18:19:12.537Z,41.40
2019-03-29T18:21:38.909Z,41.30
2019-03-29T18:24:05.513Z,42.00
2019-03-29T18:26:32.092Z,40.90
2019-03-29T18:28:59.949Z,41.60
2019-03-29T18:31:26.535Z,41.70
2019-03-29T18:33:53.324Z,42.30
2019-03-29T18:36:20.455Z,42.20
2019-03-29T18:38:47.698Z,42.20
2019-03-29T18:41:14.059Z,41.90
2019-03-29T18:43:40.714Z,42.30
2019-03-29T18:46:07.051Z,42.20
2019-03-29T18:48:33.474Z,42.30
2019-03-29T18:50:59.886Z,42.30
2019-03-29T18:53:26.402Z,42.50
2019-03-29T18:55:52.810Z,42.80
2019-03-29T18:58:19.282Z,42.70
2019-03-29T19:00:47.759Z,43.00
2019-03-29T19:03:14.406Z,43.10
2019-03-29T19:05:40.685Z,43.30
2019-03-29T19:08:07.292Z,43.10
2019-03-29T19:10:33.969Z,43.30
2019-03-29T19:13:00.583Z,43.20
2019-03-29T19:15:27.338Z,43.50
2019-03-29T19:17:53.855Z,43.70
2019-03-29T19:20:27.316Z,43.80
2019-03-29T19:22:49.082Z,43.90
2019-03-29T19:25:15.737Z,43.70
2019-03-29T19:27:43.012Z,43.30
2019-03-29T19:30:10.941Z,43.30
2019-03-29T19:32:37.465Z,43.10
2019-03-29T19:35:05.892Z,43.80
2019-03-29T19:37:32.450Z,43.20
2019-03-29T19:39:58.924Z,43.40
2019-03-29T19:42:25.445Z,43.70
2019-03-29T19:44:51.849Z,43.60
2019-03-29T19:47:18.977Z,43.50
2019-03-29T19:49:45.643Z,43.20
2019-03-29T19:52:12.288Z,43.50
2019-03-29T19:54:39.249Z,43.60
2019-03-29T19:57:07.010Z,43.40
2019-03-29T19:59:33.795Z,43.70
2019-03-29T20:02:00.280Z,43.60
2019-03-29T20:04:27.017Z,43.80
2019-03-29T20:06:53.715Z,43.50
2019-03-29T20:09:20.281Z,43.50
2019-03-29T20:11:46.952Z,43.80
2019-03-29T20:14:13.612Z,43.80
2019-03-29T20:16:40.170Z,43.80
2019-03-29T20:19:06.742Z,43.80
2019-03-29T20:21:33.128Z,43.70
2019-03-29T20:23:59.594Z,43.70
2019-03-29T20:26:26.220Z,44.00
2019-03-29T20:28:52.917Z,44.10
2019-03-29T20:31:19.342Z,44.10
2019-03-29T20:33:46.011Z,44.10
2019-03-29T20:36:12.485Z,44.50
2019-03-29T20:38:39.148Z,44.00
2019-03-29T20:41:05.837Z,44.20
2019-03-29T20:43:32.508Z,44.50
2019-03-29T20:45:59.147Z,44.40
2019-03-29T20:48:25.722Z,44.60
2019-03-29T20:50:52.249Z,44.80
2019-03-29T20:53:18.837Z,44.70
2019-03-29T20:55:46.567Z,44.90
2019-03-29T20:58:12.895Z,44.90
2019-03-29T21:00:39.459Z,44.70
2019-03-29T21:03:06.187Z,45.90
2019-03-29T21:05:32.742Z,45.20
2019-03-29T21:07:59.503Z,45.50
2019-03-29T21:10:26.390Z,45.30
2019-03-29T21:12:53.062Z,45.50
2019-03-29T21:15:19.673Z,45.50
2019-03-29T21:17:56.682Z,45.40
2019-03-29T21:20:15.534Z,45.50
2019-03-29T21:22:42.225Z,45.80
2019-03-29T21:25:09.383Z,45.70
2019-03-29T21:27:36.470Z,46.10
2019-03-29T21:30:05.802Z,46.30
2019-03-29T21:32:32.573Z,45.80
2019-03-29T21:34:58.934Z,45.90
2019-03-29T21:37:25.520Z,46.10
2019-03-29T21:39:52.160Z,46.20
2019-03-29T21:42:19.654Z,46.30
2019-03-29T21:44:45.993Z,46.00
2019-03-29T21:47:12.523Z,45.90
2019-03-29T21:49:39.055Z,46.30
2019-03-29T21:52:05.412Z,46.10
2019-03-29T21:54:32.095Z,46.30
2019-03-29T21:56:58.636Z,46.20
2019-03-29T21:59:25.300Z,46.30
2019-03-29T22:01:52.010Z,46.30
2019-03-29T22:04:18.578Z,46.30
2019-03-29T22:06:45.064Z,46.40
2019-03-29T22:09:11.776Z,46.70
2019-03-29T22:11:38.275Z,46.70
2019-03-29T22:14:06.074Z,47.50
2019-03-29T22:16:33.672Z,46.60
2019-03-29T22:19:00.271Z,46.30
2019-03-29T22:21:26.719Z,46.30
2019-03-29T22:23:53.267Z,46.30
2019-03-29T22:26:19.774Z,46.50
2019-03-29T22:28:46.263Z,46.70
2019-03-29T22:31:12.825Z,46.50
2019-03-29T22:33:39.511Z,46.70
2019-03-29T22:36:06.162Z,46.60
2019-03-29T22:38:32.725Z,46.60
2019-03-29T22:40:59.269Z,46.80
2019-03-29T22:43:25.936Z,46.70
2019-03-29T22:45:52.578Z,47.00
2019-03-29T22:48:19.219Z,47.00
2019-03-29T22:50:45.917Z,47.50
2019-03-29T22:53:12.464Z,47.40
2019-03-29T22:55:39.558Z,47.20
2019-03-29T22:58:06.213Z,47.00
2019-03-29T23:00:41.263Z,46.90
2019-03-29T23:03:10.161Z,47.10
2019-03-29T23:05:36.657Z,47.20
2019-03-29T23:08:03.504Z,47.10
2019-03-29T23:10:30.252Z,47.20
2019-03-29T23:12:56.958Z,47.20
2019-03-29T23:15:23.619Z,47.10
2019-03-29T23:17:50.173Z,47.30
2019-03-29T23:20:16.834Z,47.20
2019-03-29T23:22:43.361Z,47.70
2019-03-29T23:25:09.902Z,47.50
2019-03-29T23:27:36.427Z,47.20
2019-03-29T23:30:05.426Z,47.20
2019-03-29T23:32:32.056Z,47.40
2019-03-29T23:34:58.586Z,47.40
2019-03-29T23:37:26.464Z,47.50
2019-03-29T23:39:53.376Z,47.60
2019-03-29T23:42:20.136Z,47.50
2019-03-29T23:44:47.188Z,47.40
2019-03-29T23:47:13.870Z,47.50
2019-03-29T23:49:40.378Z,47.70
2019-03-29T23:52:07.143Z,47.70
2019-03-29T23:54:33.777Z,47.60
2019-03-29T23:57:00.358Z,47.40
2019-03-29T23:59:26.915Z,47.40
